Time;durP1;ratioP1;P1;durP2;ratioP2;P2;SDS_P1;SDS_P2;PMS_P1;PMS_P2;Temp;Humidity;BMP_temperature;BMP_pressure;BME280_temperature;BME280_humidity;BME280_pressure;Samples;Min_cycle;Max_cycle;Signal;HPM_P1;HPM_P2
2021/01/25 00:00:25;;;;;;;22.17;11.53;;;;;;;2.68;71.32;98251.94;146675;1150;104551;-72
2021/01/25 00:03:29;;;;;;;22.62;12.30;;;;;;;2.75;71.87;98258.25;146643;1150;104738;-73
2021/01/25 00:06:33;;;;;;;25.70;12.93;;;;;;;2.85;71.74;98257.31;146713;1150;104480;-72
2021/01/25 00:09:36;;;;;;;20.77;11.78;;;;;;;2.90;70.45;98255.05;147225;1150;104538;-73
2021/01/25 00:12:39;;;;;;;24.15;12.73;;;;;;;2.92;71.05;98253.91;146924;1150;104504;-72
2021/01/25 00:15:42;;;;;;;22.03;12.07;;;;;;;2.91;70.79;98256.72;147012;1150;104471;-71
2021/01/25 00:18:46;;;;;;;21.37;11.90;;;;;;;2.89;70.75;98250.78;147095;1150;104582;-71
2021/01/25 00:21:49;;;;;;;20.25;11.15;;;;;;;2.89;71.56;98256.05;147139;1150;104529;-73
2021/01/25 00:24:52;;;;;;;23.18;12.63;;;;;;;2.85;71.00;98254.68;147259;1150;104540;-71
2021/01/25 00:27:55;;;;;;;22.85;12.63;;;;;;;2.84;71.41;98260.94;147158;1149;104468;-70
2021/01/25 00:30:58;;;;;;;23.10;12.73;;;;;;;2.81;71.16;98253.33;147189;1150;104559;-71
2021/01/25 00:34:01;;;;;;;28.70;15.10;;;;;;;2.81;70.23;98266.50;147202;1150;104589;-73
2021/01/25 00:37:04;;;;;;;20.25;11.45;;;;;;;2.85;70.59;98263.43;147236;1150;104485;-73
2021/01/25 00:40:10;;;;;;;20.20;10.90;;;;;;;2.92;70.20;98255.73;147045;1150;104898;-72
2021/01/25 00:43:13;;;;;;;22.17;11.85;;;;;;;2.97;70.31;98258.73;147207;1150;104502;-73
2021/01/25 00:46:16;;;;;;;19.70;11.70;;;;;;;3.01;70.96;98261.89;147174;1150;104537;-72
2021/01/25 00:49:19;;;;;;;19.80;11.73;;;;;;;3.04;70.16;98262.42;147156;1150;104650;-73
2021/01/25 00:52:22;;;;;;;19.23;11.57;;;;;;;3.08;70.67;98270.81;147116;1148;104601;-72
2021/01/25 00:55:26;;;;;;;20.45;11.40;;;;;;;3.09;70.54;98275.94;147081;1150;104890;-72
2021/01/25 00:58:29;;;;;;;21.13;11.43;;;;;;;3.08;70.92;98279.57;147182;1150;104960;-71
2021/01/25 01:01:32;;;;;;;19.42;11.55;;;;;;;3.05;69.95;98279.86;147197;1150;104563;-71
2021/01/25 01:04:35;;;;;;;19.95;12.28;;;;;;;2.98;71.16;98272.73;147175;1149;104668;-68
2021/01/25 01:07:38;;;;;;;18.48;10.93;;;;;;;2.97;70.75;98282.45;147074;1150;104560;-71
2021/01/25 01:10:42;;;;;;;22.02;12.95;;;;;;;2.98;70.60;98288.53;147116;1150;104522;-72
2021/01/25 01:13:45;;;;;;;18.57;10.63;;;;;;;2.97;71.40;98300.07;147180;1150;104482;-72
2021/01/25 01:16:48;;;;;;;19.13;11.77;;;;;;;3.02;71.29;98298.64;146744;1150;104656;-73
2021/01/25 01:19:51;;;;;;;17.40;10.08;;;;;;;3.08;71.34;98302.44;146621;1150;104667;-72
2021/01/25 01:22:54;;;;;;;21.70;10.93;;;;;;;3.12;71.32;98302.00;146718;1149;104657;-72
2021/01/25 01:25:57;;;;;;;19.77;11.60;;;;;;;3.20;71.29;98306.49;146599;1149;104482;-71
2021/01/25 01:29:00;;;;;;;16.73;10.32;;;;;;;3.19;71.25;98304.01;147006;1150;104486;-72
2021/01/25 01:32:04;;;;;;;17.60;11.25;;;;;;;3.18;71.31;98297.10;147208;1150;104505;-73
2021/01/25 01:35:09;;;;;;;20.30;11.00;;;;;;;3.17;71.11;98298.06;146779;1150;104633;-73
2021/01/25 01:38:12;;;;;;;20.07;11.90;;;;;;;3.17;71.13;98292.80;146877;1150;104469;-73
2021/01/25 01:41:15;;;;;;;22.30;13.60;;;;;;;3.15;70.42;98295.58;146779;1149;104575;-73
2021/01/25 01:44:18;;;;;;;19.77;11.80;;;;;;;3.14;71.42;98305.30;146686;1149;104578;-73
2021/01/25 01:47:22;;;;;;;18.90;11.30;;;;;;;3.12;71.20;98298.54;146723;1149;104504;-73
2021/01/25 01:50:26;;;;;;;32.65;15.45;;;;;;;3.08;71.47;98298.02;146711;1150;104586;-73
2021/01/25 01:53:29;;;;;;;28.10;14.57;;;;;;;3.05;71.11;98302.77;146671;1150;104916;-73
2021/01/25 01:56:33;;;;;;;43.92;18.98;;;;;;;3.08;70.92;98297.16;146735;1150;104488;-72
2021/01/25 01:59:36;;;;;;;18.07;10.13;;;;;;;3.15;70.41;98293.77;146916;1150;104503;-73
2021/01/25 02:02:40;;;;;;;16.55;9.68;;;;;;;3.22;70.38;98304.53;146784;1150;104559;-72
2021/01/25 02:05:43;;;;;;;14.63;9.45;;;;;;;3.27;71.18;98302.27;146662;1149;104655;-72
2021/01/25 02:08:48;;;;;;;14.98;9.43;;;;;;;3.30;71.50;98301.94;147043;1150;104618;-72
2021/01/25 02:11:52;;;;;;;16.40;10.23;;;;;;;3.30;70.42;98296.67;146712;1150;104559;-72
2021/01/25 02:14:58;;;;;;;15.88;9.55;;;;;;;3.32;70.37;98304.43;146782;1150;104508;-71
2021/01/25 02:18:01;;;;;;;16.70;9.98;;;;;;;3.30;70.25;98301.13;146863;1149;104477;-70
2021/01/25 02:21:08;;;;;;;17.32;10.95;;;;;;;3.30;71.21;98306.39;146975;1150;104656;-70
2021/01/25 02:24:24;;;;;;;14.87;9.85;;;;;;;3.29;70.78;98310.00;146495;1150;104579;-70
2021/01/25 02:27:37;;;;;;;20.52;11.53;;;;;;;3.27;70.67;98304.05;146682;1150;104562;-73
2021/01/25 02:30:41;;;;;;;16.75;10.53;;;;;;;3.22;70.81;98303.71;146942;1150;104559;-73
2021/01/25 02:33:47;;;;;;;17.67;10.33;;;;;;;3.19;70.32;98298.73;147018;1149;104482;-72
2021/01/25 02:36:50;;;;;;;18.52;10.35;;;;;;;3.22;71.07;98315.08;146957;1150;104674;-73
2021/01/25 02:39:56;;;;;;;15.08;9.25;;;;;;;3.26;70.31;98300.59;147224;1150;104567;-74
2021/01/25 02:43:00;;;;;;;17.10;10.00;;;;;;;3.31;71.02;98308.88;147155;1150;104559;-74
2021/01/25 02:46:05;;;;;;;14.00;9.10;;;;;;;3.35;71.17;98309.41;147096;1149;104520;-74
2021/01/25 02:49:09;;;;;;;14.25;8.98;;;;;;;3.38;71.51;98309.08;146973;1149;104460;-74
2021/01/25 02:52:14;;;;;;;16.20;9.53;;;;;;;3.37;71.00;98307.44;146942;1150;105134;-73
2021/01/25 02:55:18;;;;;;;15.35;9.55;;;;;;;3.38;71.45;98310.89;147176;1149;104500;-73
2021/01/25 02:58:22;;;;;;;16.57;9.95;;;;;;;3.37;71.02;98310.08;147202;1149;104617;-72
2021/01/25 03:01:26;;;;;;;15.45;9.95;;;;;;;3.35;70.96;98304.13;146895;1150;104569;-72
2021/01/25 03:04:31;;;;;;;15.58;9.63;;;;;;;3.29;70.10;98307.36;147300;1148;104489;-72
2021/01/25 03:07:34;;;;;;;15.10;9.30;;;;;;;3.27;70.27;98306.69;147160;1149;104554;-72
2021/01/25 03:10:37;;;;;;;15.10;9.03;;;;;;;3.24;71.04;98307.84;147038;1150;104460;-71
2021/01/25 03:13:40;;;;;;;17.95;10.35;;;;;;;3.22;71.11;98309.80;146792;1149;104485;-73
2021/01/25 03:16:43;;;;;;;39.30;18.17;;;;;;;3.19;70.04;98320.64;146661;1150;104908;-71
2021/01/25 03:19:47;;;;;;;33.13;15.77;;;;;;;3.23;71.07;98313.25;146882;1150;104559;-72
2021/01/25 03:22:50;;;;;;;21.02;12.23;;;;;;;3.26;71.26;98316.41;146719;1150;104963;-73
2021/01/25 03:25:53;;;;;;;25.25;14.68;;;;;;;3.31;71.03;98318.58;146669;1150;104585;-72
2021/01/25 03:28:56;;;;;;;21.53;13.70;;;;;;;3.31;71.48;98322.06;146691;1150;104557;-72
2021/01/25 03:31:59;;;;;;;18.92;11.78;;;;;;;3.33;70.84;98325.38;146786;1149;104516;-70
2021/01/25 03:35:02;;;;;;;18.02;11.38;;;;;;;3.32;70.96;98317.61;146636;1150;104486;-73
2021/01/25 03:38:06;;;;;;;18.70;10.73;;;;;;;3.31;71.46;98318.58;146616;1149;104643;-73
2021/01/25 03:41:09;;;;;;;15.30;9.13;;;;;;;3.33;70.56;98332.45;146732;1150;104605;-74
2021/01/25 03:44:12;;;;;;;15.10;9.63;;;;;;;3.30;70.91;98328.30;146673;1150;104908;-74
2021/01/25 03:47:15;;;;;;;14.50;9.85;;;;;;;3.29;70.30;98334.57;146618;1149;104947;-73
2021/01/25 03:50:18;;;;;;;20.75;12.25;;;;;;;3.27;71.07;98325.99;146653;1150;104560;-74
2021/01/25 03:53:21;;;;;;;15.28;9.53;;;;;;;3.24;70.25;98330.73;146730;1149;104560;-76
2021/01/25 03:56:24;;;;;;;22.90;13.00;;;;;;;3.22;70.98;98336.16;146663;1150;104521;-74
2021/01/25 03:59:27;;;;;;;81.10;38.47;;;;;;;3.23;71.42;98350.16;146650;1149;104582;-76
2021/01/25 04:02:31;;;;;;;32.10;16.15;;;;;;;3.30;69.86;98348.57;146877;1150;104483;-73
2021/01/25 04:05:34;;;;;;;101.22;47.95;;;;;;;3.34;70.28;98347.28;146897;1150;104521;-77
2021/01/25 04:08:37;;;;;;;37.03;19.77;;;;;;;3.36;70.20;98355.04;146920;1150;104761;-74
2021/01/25 04:11:42;;;;;;;47.53;25.45;;;;;;;3.37;71.00;98357.53;146944;1150;104613;-75
2021/01/25 04:14:46;;;;;;;27.48;15.35;;;;;;;3.35;70.96;98359.48;147204;1150;105004;-74
2021/01/25 04:17:50;;;;;;;19.52;11.97;;;;;;;3.33;71.30;98354.36;147328;1149;104674;-74
2021/01/25 04:20:53;;;;;;;18.60;11.75;;;;;;;3.32;71.37;98360.61;146932;1149;104432;-74
2021/01/25 04:23:56;;;;;;;19.50;12.07;;;;;;;3.29;70.99;98357.45;147152;1150;104572;-73
2021/01/25 04:26:59;;;;;;;19.82;12.60;;;;;;;3.28;70.84;98351.35;147177;1150;104547;-74
2021/01/25 04:30:05;;;;;;;16.07;11.05;;;;;;;3.26;70.95;98352.50;147172;1150;104475;-73
2021/01/25 04:33:08;;;;;;;18.23;12.03;;;;;;;3.24;70.09;98354.46;147226;1150;104467;-73
2021/01/25 04:36:11;;;;;;;19.90;12.07;;;;;;;3.21;70.93;98358.20;147179;1151;104470;-73
2021/01/25 04:39:14;;;;;;;22.65;13.75;;;;;;;3.24;70.87;98357.09;147167;1150;104687;-74
2021/01/25 04:42:18;;;;;;;15.58;9.90;;;;;;;3.29;70.22;98362.72;147054;1150;104937;-74
2021/01/25 04:45:21;;;;;;;18.30;10.33;;;;;;;3.32;70.15;98363.24;147211;1148;104484;-73
2021/01/25 04:48:27;;;;;;;19.15;11.18;;;;;;;3.36;70.09;98363.77;147152;1151;104587;-72
2021/01/25 04:51:31;;;;;;;20.17;11.70;;;;;;;3.36;70.87;98352.41;147145;1150;104482;-72
2021/01/25 04:54:35;;;;;;;22.37;14.30;;;;;;;3.34;70.47;98363.09;147124;1149;104651;-74
2021/01/25 04:57:38;;;;;;;23.32;15.32;;;;;;;3.33;70.31;98358.82;146681;1150;104615;-74
2021/01/25 05:00:42;;;;;;;19.43;12.73;;;;;;;3.22;69.64;98366.97;146990;1150;104560;-74
2021/01/25 05:03:45;;;;;;;19.55;11.20;;;;;;;3.10;70.00;98369.84;147172;1150;104460;-74
2021/01/25 05:06:49;;;;;;;20.62;13.35;;;;;;;3.06;70.12;98368.48;147189;1151;104503;-74
2021/01/25 05:09:52;;;;;;;23.60;14.98;;;;;;;3.07;71.02;98364.86;147179;1150;104590;-74
2021/01/25 05:12:55;;;;;;;23.65;14.75;;;;;;;3.08;70.15;98363.89;147176;1151;104513;-74
2021/01/25 05:15:58;;;;;;;27.55;15.95;;;;;;;3.10;70.95;98363.75;147160;1151;104465;-74
2021/01/25 05:19:04;;;;;;;21.47;12.97;;;;;;;3.15;70.50;98367.55;147244;1149;104473;-74
2021/01/25 05:22:14;;;;;;;21.65;11.80;;;;;;;3.21;69.89;98360.84;147232;1150;104569;-73
2021/01/25 05:25:26;;;;;;;21.93;14.03;;;;;;;3.22;70.06;98366.97;147179;1151;104621;-74
2021/01/25 05:28:30;;;;;;;20.05;11.85;;;;;;;3.18;70.21;98370.89;146667;1150;104562;-73
2021/01/25 05:31:33;;;;;;;20.60;12.45;;;;;;;3.18;70.64;98378.80;146679;1148;104559;-74
2021/01/25 05:34:36;;;;;;;24.20;14.43;;;;;;;3.20;70.18;98372.38;146884;1149;104480;-74
2021/01/25 05:37:42;;;;;;;20.90;12.30;;;;;;;3.18;70.68;98378.80;146728;1149;104921;-73
2021/01/25 05:40:54;;;;;;;27.50;15.85;;;;;;;3.12;70.12;98383.69;147086;1150;104541;-74
2021/01/25 05:43:57;;;;;;;25.07;14.37;;;;;;;3.04;70.04;98375.72;147105;1149;104617;-73
2021/01/25 05:47:08;;;;;;;23.07;13.48;;;;;;;2.96;69.60;98378.26;146694;1150;104479;-73
2021/01/25 05:50:24;;;;;;;23.47;13.28;;;;;;;2.86;69.72;98382.78;146944;1150;104554;-73
2021/01/25 05:53:29;;;;;;;55.88;24.45;;;;;;;2.72;70.85;98382.32;146785;1150;104487;-73
2021/01/25 05:56:32;;;;;;;29.72;15.03;;;;;;;2.56;70.21;98384.80;147145;1148;104577;-70
2021/01/25 05:59:35;;;;;;;46.63;21.77;;;;;;;2.49;71.02;98375.83;146682;1149;106095;-71
2021/01/25 06:02:42;;;;;;;30.00;15.55;;;;;;;2.38;71.10;98379.48;147082;1150;104506;-71
2021/01/25 06:05:46;;;;;;;54.03;27.10;;;;;;;2.33;71.11;98387.83;147105;1151;104394;-71
2021/01/25 06:09:00;;;;;;;32.13;15.50;;;;;;;2.25;70.64;98385.11;147193;1150;104474;-71
2021/01/25 06:12:06;;;;;;;80.10;36.47;;;;;;;2.17;71.69;98390.25;147170;1151;104563;-72
2021/01/25 06:15:15;;;;;;;56.13;26.05;;;;;;;2.10;70.23;98397.91;147163;1150;104464;-72
2021/01/25 06:18:22;;;;;;;57.35;26.37;;;;;;;2.10;71.19;98402.34;147151;1149;104557;-71
2021/01/25 06:21:30;;;;;;;72.12;30.37;;;;;;;2.04;70.54;98395.01;147095;1151;104518;-72
2021/01/25 06:24:34;;;;;;;40.57;19.03;;;;;;;2.06;70.42;98401.80;146894;1150;104562;-72
2021/01/25 06:27:38;;;;;;;62.05;28.77;;;;;;;2.07;71.05;98400.00;146711;1150;104658;-72
2021/01/25 06:30:44;;;;;;;60.63;29.65;;;;;;;2.20;71.01;98399.67;146684;1150;104559;-72
2021/01/25 06:33:49;;;;;;;34.55;17.62;;;;;;;2.24;71.85;98399.22;146783;1150;104860;-71
2021/01/25 06:36:53;;;;;;;45.80;21.37;;;;;;;2.20;71.15;98400.50;147203;1151;104537;-72
2021/01/25 06:39:58;;;;;;;52.83;25.45;;;;;;;2.22;71.73;98401.17;147211;1149;104575;-73
2021/01/25 06:43:09;;;;;;;34.00;19.42;;;;;;;2.18;70.38;98409.52;147028;1148;105061;-70
2021/01/25 06:46:17;;;;;;;49.13;28.42;;;;;;;2.12;70.47;98416.19;147060;1150;104880;-71
2021/01/25 06:49:21;;;;;;;34.48;17.65;;;;;;;2.10;71.79;98407.61;147167;1150;104548;-71
2021/01/25 06:52:27;;;;;;;35.85;18.05;;;;;;;2.08;70.77;98412.16;146998;1150;104557;-71
2021/01/25 06:55:33;;;;;;;25.30;13.72;;;;;;;2.07;71.53;98419.23;147104;1150;104481;-71
2021/01/25 06:58:38;;;;;;;40.98;19.42;;;;;;;2.04;71.22;98416.05;147041;1150;104548;-71
2021/01/25 07:01:42;;;;;;;22.35;11.75;;;;;;;2.13;71.65;98423.09;147071;1150;104559;-71
2021/01/25 07:04:47;;;;;;;18.92;11.08;;;;;;;2.31;71.61;98431.89;147100;1148;104896;-71
2021/01/25 07:07:50;;;;;;;14.83;9.43;;;;;;;2.51;71.41;98435.24;146999;1148;104556;-70
2021/01/25 07:10:58;;;;;;;25.15;15.48;;;;;;;2.60;70.65;98430.92;147019;1148;104460;-70
2021/01/25 07:14:02;;;;;;;40.80;23.73;;;;;;;2.70;70.13;98431.68;147007;1148;104580;-71
2021/01/25 07:17:05;;;;;;;30.43;17.75;;;;;;;2.77;70.53;98431.91;147097;1148;104558;-71
2021/01/25 07:20:12;;;;;;;23.67;14.47;;;;;;;2.82;70.02;98439.37;147111;1146;104512;-71
2021/01/25 07:23:18;;;;;;;133.00;80.07;;;;;;;2.87;71.13;98445.03;147027;1148;104595;-71
2021/01/25 07:26:21;;;;;;;55.40;33.13;;;;;;;2.92;69.94;98427.78;147058;1148;104486;-70
2021/01/25 07:29:26;;;;;;;36.57;23.43;;;;;;;2.97;70.87;98437.89;147032;1148;104617;-71
2021/01/25 07:32:29;;;;;;;46.90;29.75;;;;;;;2.99;71.32;98435.93;147127;1148;104487;-71
2021/01/25 07:35:34;;;;;;;39.55;25.60;;;;;;;3.03;70.88;98426.75;147041;1148;104559;-71
2021/01/25 07:38:37;;;;;;;27.37;16.95;;;;;;;3.09;71.09;98428.77;147050;1148;104917;-71
2021/01/25 07:41:41;;;;;;;30.48;17.60;;;;;;;3.12;70.66;98425.84;146958;1148;104569;-71
2021/01/25 07:44:46;;;;;;;26.48;17.07;;;;;;;3.09;70.18;98426.14;146962;1148;104482;-71
2021/01/25 07:47:50;;;;;;;30.43;19.62;;;;;;;3.09;70.20;98423.50;146582;1148;104639;-71
2021/01/25 07:50:57;;;;;;;29.23;19.20;;;;;;;3.05;70.78;98424.78;147004;1148;104486;-71
2021/01/25 07:54:02;;;;;;;23.25;14.25;;;;;;;3.13;70.92;98437.21;147003;1148;104579;-71
2021/01/25 07:57:21;;;;;;;18.23;10.78;;;;;;;3.13;71.03;98435.39;147129;1148;104749;-71
2021/01/25 08:00:25;;;;;;;19.30;12.05;;;;;;;3.11;70.26;98439.17;147061;1148;104627;-69
2021/01/25 08:03:31;;;;;;;20.12;12.25;;;;;;;3.08;70.83;98436.82;147002;1148;104564;-70
2021/01/25 08:06:35;;;;;;;19.37;12.18;;;;;;;3.04;69.99;98446.86;147072;1148;104561;-69
2021/01/25 08:09:39;;;;;;;23.32;14.07;;;;;;;2.91;70.19;98449.03;147084;1148;104569;-71
2021/01/25 08:12:45;;;;;;;31.97;18.70;;;;;;;2.87;69.60;98447.67;147032;1148;104867;-71
2021/01/25 08:15:59;;;;;;;81.73;40.77;;;;;;;2.79;70.43;98445.78;147201;1148;104532;-70
2021/01/25 08:19:09;;;;;;;55.78;30.85;;;;;;;2.80;70.51;98446.60;147274;1148;104583;-72
2021/01/25 08:22:17;;;;;;;74.32;42.15;;;;;;;2.76;69.75;98448.70;147153;1148;104535;-72
2021/01/25 08:25:23;;;;;;;58.85;33.05;;;;;;;2.67;69.72;98453.03;147175;1148;104564;-72
2021/01/25 08:28:30;;;;;;;58.40;30.02;;;;;;;2.61;70.65;98445.72;147182;1148;104595;-72
2021/01/25 08:31:36;;;;;;;36.17;20.23;;;;;;;2.56;70.84;98442.72;147181;1148;104565;-72
2021/01/25 08:34:39;;;;;;;40.23;23.97;;;;;;;2.57;69.88;98447.00;147220;1148;104578;-73
2021/01/25 08:37:42;;;;;;;38.00;24.27;;;;;;;2.51;71.33;98452.85;147177;1148;104502;-72
2021/01/25 08:40:45;;;;;;;25.90;17.00;;;;;;;2.48;71.23;98442.60;147113;1148;104489;-72
2021/01/25 08:43:54;;;;;;;24.20;14.30;;;;;;;2.54;71.45;98442.01;147187;1148;104485;-71
2021/01/25 08:47:08;;;;;;;25.23;15.77;;;;;;;2.48;71.71;98443.45;147218;1148;104559;-71
2021/01/25 08:50:26;;;;;;;25.47;14.87;;;;;;;2.51;71.57;98442.33;147121;1148;104556;-71
2021/01/25 08:53:31;;;;;;;26.10;15.80;;;;;;;2.44;71.70;98438.61;147170;1148;104559;-71
2021/01/25 08:56:41;;;;;;;24.17;15.00;;;;;;;2.35;70.79;98441.14;147127;1148;104473;-71
2021/01/25 08:59:45;;;;;;;29.18;16.37;;;;;;;2.30;71.19;98442.55;147156;1148;104463;-73
2021/01/25 09:02:48;;;;;;;31.60;17.87;;;;;;;2.22;71.64;98448.54;146635;1148;104617;-71
2021/01/25 09:05:53;;;;;;;22.63;13.43;;;;;;;2.22;71.70;98443.28;146768;1148;104554;-71
2021/01/25 09:08:57;;;;;;;23.00;12.68;;;;;;;2.24;72.22;98451.85;146955;1148;104506;-71
2021/01/25 09:12:00;;;;;;;23.55;14.20;;;;;;;2.25;71.94;98453.53;146592;1148;104504;-71
2021/01/25 09:15:05;;;;;;;20.97;11.93;;;;;;;2.23;71.48;98458.08;147054;1148;104559;-70
2021/01/25 09:18:11;;;;;;;22.57;13.70;;;;;;;2.19;72.17;98474.31;147118;1148;104535;-71
2021/01/25 09:21:14;;;;;;;23.87;12.93;;;;;;;2.26;72.12;98476.22;147174;1146;104550;-71
2021/01/25 09:24:17;;;;;;;21.68;12.73;;;;;;;2.22;71.05;98476.66;146877;1148;104476;-71
2021/01/25 09:27:20;;;;;;;24.10;13.48;;;;;;;2.17;72.37;98471.81;146794;1148;104542;-71
2021/01/25 09:30:27;;;;;;;28.60;15.33;;;;;;;2.18;72.43;98473.48;146790;1148;104591;-71
2021/01/25 09:33:31;;;;;;;28.17;15.83;;;;;;;2.26;72.00;98470.95;146888;1148;104560;-71
2021/01/25 09:36:35;;;;;;;25.65;14.07;;;;;;;2.22;71.29;98471.41;146966;1145;104534;-70
2021/01/25 09:39:38;;;;;;;60.12;30.62;;;;;;;2.15;72.45;98473.77;146971;1148;104927;-70
2021/01/25 09:42:42;;;;;;;55.78;27.65;;;;;;;2.19;71.88;98475.13;146800;1148;104477;-71
2021/01/25 09:45:45;;;;;;;36.90;20.77;;;;;;;2.15;72.94;98479.02;146571;1148;104908;-72
2021/01/25 09:48:48;;;;;;;37.53;21.23;;;;;;;2.09;72.22;98483.05;146906;1148;104662;-71
2021/01/25 09:51:51;;;;;;;33.98;17.90;;;;;;;2.04;72.78;98477.41;147057;1148;104559;-70
2021/01/25 09:54:55;;;;;;;38.17;18.03;;;;;;;2.09;72.07;98475.16;146639;1148;104562;-71
2021/01/25 09:57:58;;;;;;;22.90;12.40;;;;;;;2.21;72.10;98480.25;146776;1148;104566;-70
2021/01/25 10:01:01;;;;;;;35.10;18.83;;;;;;;2.22;71.52;98479.30;146566;1148;104470;-71
2021/01/25 10:04:04;;;;;;;24.98;14.15;;;;;;;2.21;71.45;98483.70;146663;1148;104615;-71
2021/01/25 10:07:08;;;;;;;27.15;16.25;;;;;;;2.18;71.84;98491.91;146804;1148;104568;-71
2021/01/25 10:10:14;;;;;;;25.80;15.32;;;;;;;2.21;73.10;98498.67;146614;1148;104470;-70
2021/01/25 10:13:17;;;;;;;26.35;14.60;;;;;;;2.13;72.49;98488.86;146770;1148;104501;-70
2021/01/25 10:16:21;;;;;;;24.43;13.93;;;;;;;2.10;71.89;98487.36;146680;1148;104517;-71
2021/01/25 10:19:24;;;;;;;29.67;16.60;;;;;;;2.11;72.52;98486.37;146867;1148;104730;-70
2021/01/25 10:22:27;;;;;;;26.75;14.20;;;;;;;2.12;72.75;98479.33;147014;1148;104564;-70
2021/01/25 10:25:31;;;;;;;28.47;15.88;;;;;;;2.18;71.91;98476.13;146520;1148;104483;-72
2021/01/25 10:28:34;;;;;;;23.60;14.15;;;;;;;2.15;72.33;98486.91;146794;1148;104483;-70
2021/01/25 10:31:37;;;;;;;22.55;11.80;;;;;;;2.03;73.95;98482.81;146494;1148;104576;-71
2021/01/25 10:34:40;;;;;;;24.12;13.80;;;;;;;1.93;72.88;98481.02;146463;1146;104532;-72
2021/01/25 10:37:43;;;;;;;19.92;11.18;;;;;;;1.88;72.61;98475.34;146608;1148;104535;-70
2021/01/25 10:40:47;;;;;;;23.63;13.40;;;;;;;1.89;73.18;98477.02;146475;1148;104604;-70
2021/01/25 10:43:50;;;;;;;22.17;12.53;;;;;;;1.86;73.14;98477.30;146594;1148;104503;-70
2021/01/25 10:46:53;;;;;;;22.75;11.25;;;;;;;1.93;73.72;98474.94;146592;1148;104566;-71
2021/01/25 10:49:56;;;;;;;24.80;13.22;;;;;;;1.98;73.71;98477.14;146913;1148;104719;-71
2021/01/25 10:52:59;;;;;;;23.83;13.60;;;;;;;2.00;73.15;98475.19;146702;1150;104582;-71
2021/01/25 10:56:03;;;;;;;22.67;13.28;;;;;;;1.86;73.70;98472.03;146997;1149;104818;-71
2021/01/25 10:59:06;;;;;;;25.37;14.00;;;;;;;1.75;73.84;98466.92;147031;1151;104503;-70
2021/01/25 11:02:09;;;;;;;24.43;13.08;;;;;;;1.67;73.83;98466.81;147118;1148;104526;-70
2021/01/25 11:05:14;;;;;;;26.55;14.25;;;;;;;1.69;74.54;98478.84;147057;1146;104660;-70
2021/01/25 11:08:17;;;;;;;28.07;16.10;;;;;;;1.75;74.84;98482.70;147060;1148;104552;-70
2021/01/25 11:11:20;;;;;;;25.73;13.50;;;;;;;1.83;74.34;98479.38;146739;1148;105001;-71
2021/01/25 11:14:24;;;;;;;25.80;14.87;;;;;;;1.87;74.06;98471.08;146903;1148;104471;-72
2021/01/25 11:17:27;;;;;;;29.37;17.42;;;;;;;1.88;73.69;98469.27;146847;1148;104560;-72
2021/01/25 11:20:30;;;;;;;33.25;17.00;;;;;;;1.83;74.61;98464.45;146863;1148;104636;-69
2021/01/25 11:23:33;;;;;;;37.20;20.87;;;;;;;1.75;74.26;98457.27;146532;1148;104467;-71
2021/01/25 11:26:38;;;;;;;24.60;13.83;;;;;;;1.67;74.80;98469.44;146788;1148;104559;-70
2021/01/25 11:29:41;;;;;;;22.00;12.63;;;;;;;1.65;74.55;98469.57;147047;1148;104566;-71
2021/01/25 11:32:44;;;;;;;18.55;10.82;;;;;;;1.67;74.88;98472.06;147039;1148;104526;-70
2021/01/25 11:35:47;;;;;;;25.43;14.23;;;;;;;1.71;74.74;98474.30;147067;1148;104639;-70
2021/01/25 11:38:50;;;;;;;25.48;15.65;;;;;;;1.73;74.39;98471.50;147084;1148;104981;-70
2021/01/25 11:41:54;;;;;;;24.80;14.13;;;;;;;1.78;73.51;98471.09;147039;1148;104490;-71
2021/01/25 11:44:57;;;;;;;23.60;13.10;;;;;;;1.69;75.14;98473.58;146982;1148;104470;-71
2021/01/25 11:48:00;;;;;;;31.95;16.55;;;;;;;1.65;75.57;98472.20;146586;1147;104527;-71
2021/01/25 11:51:03;;;;;;;32.05;15.55;;;;;;;1.66;74.71;98463.36;147100;1148;104612;-71
2021/01/25 11:54:06;;;;;;;29.92;14.98;;;;;;;1.73;74.74;98453.09;147090;1148;104527;-71
2021/01/25 11:57:09;;;;;;;25.40;13.40;;;;;;;1.72;73.95;98454.08;147181;1148;104961;-71
2021/01/25 12:00:14;;;;;;;23.43;13.27;;;;;;;1.72;74.41;98454.08;146723;1150;104591;-71
2021/01/25 12:03:17;;;;;;;25.62;14.05;;;;;;;1.69;74.77;98456.98;146923;1149;104561;-70
2021/01/25 12:06:20;;;;;;;22.35;12.13;;;;;;;1.60;75.13;98457.81;146940;1148;104726;-71
2021/01/25 12:09:24;;;;;;;33.10;17.80;;;;;;;1.60;75.16;98463.08;147024;1148;104487;-72
2021/01/25 12:12:27;;;;;;;24.25;13.55;;;;;;;1.71;74.26;98460.30;147207;1148;104473;-70
2021/01/25 12:15:30;;;;;;;19.85;11.65;;;;;;;1.78;74.72;98465.84;147053;1148;104442;-72
2021/01/25 12:18:33;;;;;;;24.17;13.77;;;;;;;1.73;74.26;98461.84;147254;1149;104499;-73
2021/01/25 12:21:36;;;;;;;22.77;13.78;;;;;;;1.75;73.99;98466.92;147121;1150;104629;-72
2021/01/25 12:24:40;;;;;;;23.60;13.43;;;;;;;1.67;75.08;98465.00;147120;1148;104564;-72
2021/01/25 12:27:43;;;;;;;20.57;11.93;;;;;;;1.60;74.84;98463.08;147184;1150;104612;-70
2021/01/25 12:30:46;;;;;;;23.18;13.10;;;;;;;1.54;75.14;98462.69;147076;1150;104614;-72
2021/01/25 12:33:49;;;;;;;22.37;13.28;;;;;;;1.65;74.14;98468.75;147147;1150;104486;-71
2021/01/25 12:36:53;;;;;;;21.45;11.15;;;;;;;1.75;74.47;98464.30;147002;1151;104642;-70
2021/01/25 12:39:56;;;;;;;24.07;14.40;;;;;;;1.77;74.63;98472.88;147036;1150;104912;-70
2021/01/25 12:42:59;;;;;;;26.17;16.12;;;;;;;1.71;75.08;98469.03;147059;1149;104559;-71
2021/01/25 12:46:02;;;;;;;26.73;15.83;;;;;;;1.68;75.71;98476.37;147052;1150;104505;-70
2021/01/25 12:49:06;;;;;;;25.60;15.13;;;;;;;1.62;75.79;98476.91;146851;1150;105093;-71
2021/01/25 12:52:10;;;;;;;29.73;16.50;;;;;;;1.57;75.39;98474.70;146986;1151;104601;-70
2021/01/25 12:55:14;;;;;;;28.73;16.27;;;;;;;1.63;75.55;98478.58;147037;1150;104879;-71
2021/01/25 12:58:17;;;;;;;25.40;13.80;;;;;;;1.66;74.93;98478.31;147056;1148;104501;-71
2021/01/25 13:01:20;;;;;;;29.48;17.20;;;;;;;1.69;75.15;98478.02;147025;1151;104556;-71
2021/01/25 13:04:23;;;;;;;28.12;16.07;;;;;;;1.66;75.17;98480.94;147067;1151;104502;-71
2021/01/25 13:07:26;;;;;;;28.85;16.50;;;;;;;1.62;75.58;98482.16;147018;1149;104622;-71
2021/01/25 13:10:29;;;;;;;25.37;14.75;;;;;;;1.57;75.92;98486.05;147167;1150;104518;-71
2021/01/25 13:13:33;;;;;;;27.48;15.68;;;;;;;1.53;74.73;98495.19;147272;1149;104468;-71
2021/01/25 13:16:36;;;;;;;28.30;15.90;;;;;;;1.60;75.60;98500.73;147053;1151;104543;-71
2021/01/25 13:19:39;;;;;;;22.15;12.40;;;;;;;1.61;74.50;98496.30;146957;1148;104569;-71
2021/01/25 13:22:42;;;;;;;27.20;16.67;;;;;;;1.64;76.53;98499.48;146705;1148;104612;-72
2021/01/25 13:25:46;;;;;;;34.43;19.12;;;;;;;1.57;75.78;98506.25;147134;1148;104569;-72
2021/01/25 13:28:49;;;;;;;29.15;17.07;;;;;;;1.46;75.90;98499.33;147204;1148;104607;-73
2021/01/25 13:31:52;;;;;;;24.72;13.83;;;;;;;1.43;76.00;98514.57;147242;1148;104578;-71
2021/01/25 13:34:55;;;;;;;27.40;15.15;;;;;;;1.44;75.93;98505.70;147233;1150;104556;-71
2021/01/25 13:37:59;;;;;;;25.57;14.00;;;;;;;1.46;75.71;98509.84;147151;1150;104479;-71
2021/01/25 13:41:02;;;;;;;27.00;14.97;;;;;;;1.52;75.97;98511.94;147321;1148;104557;-73
2021/01/25 13:44:06;;;;;;;30.80;16.48;;;;;;;1.55;75.30;98518.71;147181;1148;104495;-72
2021/01/25 13:47:10;;;;;;;29.80;17.70;;;;;;;1.56;75.97;98515.95;147086;1148;104575;-72
2021/01/25 13:50:14;;;;;;;27.80;15.83;;;;;;;1.53;76.06;98524.09;146817;1148;104559;-71
2021/01/25 13:53:17;;;;;;;29.25;15.95;;;;;;;1.47;75.82;98519.40;147027;1148;104636;-71
2021/01/25 13:56:21;;;;;;;31.77;17.50;;;;;;;1.42;76.17;98529.48;147102;1148;104417;-71